Terminal Aerodrome Forecast
Issued by NWS North Platte, NE

Home | Current Version | Previous Version | Graphics & Text | Print | Product List | Glossary On
Versions: 1 2 3 4 5 6 7 8 9 10 11 12 13 14 15 16
000
FTUS43 KLBF 040520
TAFVTN
TAF
KVTN 040520Z 0406/0506 11008KT P6SM OVC200
     FM040700 15011KT P6SM VCTS SCT070CB BKN150
      TEMPO 0407/0410 -TSRA BKN070CB
     FM041100 21006KT P6SM SCT080 BKN150=

USA.gov is the U.S. government's official web portal to all federal, state and local government web resources and services.